THY1MD LTCK-LTFM
Flight info
| Callsign | THY1MD |
|---|---|
| Flight time | 1h 43m |
| Altitude | 28000 |
| Route | VARTO W71 LATSU L333 GELSU/N0461F380 UL333 SIV UA4 TIMOP UT97 KANQO |
| Aircraft | A321/M-SDE3FGHIRWY/LB1 |
Departure
| Time | 2026-05-04 14:22 |
|---|---|
| Airport | Muş Airport (LTCK) |
Arrival
| Time | 2026-05-04 16:05 |
|---|---|
| Airport | İstanbul Airport (LTFM) |
| Time | Latitude | Longitude | Altitude | Speed | Heading |
|---|---|---|---|---|---|
| 2026-05-04 13:48 | 38.75962 | 41.64651 | 4169 ft | 0 kts | 26° |
| 2026-05-04 14:13 | 38.75961 | 41.64650 | 4169 ft | 2 kts | 26° |
| 2026-05-04 14:13 | 38.75939 | 41.64634 | 4171 ft | 4 kts | 36° |
| 2026-05-04 14:13 | 38.75920 | 41.64612 | 4171 ft | 4 kts | 58° |
| 2026-05-04 14:14 | 38.75913 | 41.64585 | 4169 ft | 4 kts | 110° |
| 2026-05-04 14:14 | 38.75914 | 41.64580 | 4169 ft | 2 kts | 117° |
| 2026-05-04 14:17 | 38.75912 | 41.64587 | 4169 ft | 1 kts | 116° |
| 2026-05-04 14:18 | 38.75905 | 41.64601 | 4170 ft | 4 kts | 124° |
| 2026-05-04 14:18 | 38.75802 | 41.64576 | 4167 ft | 11 kts | 207° |
| 2026-05-04 14:19 | 38.75627 | 41.64464 | 4164 ft | 16 kts | 206° |
| 2026-05-04 14:19 | 38.75577 | 41.64432 | 4164 ft | 2 kts | 206° |
| 2026-05-04 14:19 | 38.75576 | 41.64431 | 4164 ft | 0 kts | 207° |
| 2026-05-04 14:20 | 38.75571 | 41.64429 | 4164 ft | 2 kts | 206° |
| 2026-05-04 14:20 | 38.75550 | 41.64415 | 4164 ft | 5 kts | 206° |
| 2026-05-04 14:21 | 38.75450 | 41.64392 | 4162 ft | 10 kts | 141° |
| 2026-05-04 14:21 | 38.75425 | 41.64447 | 4163 ft | 0 kts | 116° |
| 2026-05-04 14:21 | 38.75424 | 41.64449 | 4163 ft | 3 kts | 116° |
| 2026-05-04 14:21 | 38.75294 | 41.64786 | 4166 ft | 82 kts | 116° |
| 2026-05-04 14:22 | 38.74931 | 41.65725 | 4165 ft | 150 kts | 116° |
| 2026-05-04 14:22 | 38.74414 | 41.67057 | 4598 ft | 170 kts | 122° |
| 2026-05-04 14:22 | 38.73858 | 41.68403 | 5406 ft | 171 kts | 124° |
| 2026-05-04 14:22 | 38.73240 | 41.69748 | 6020 ft | 184 kts | 124° |
| 2026-05-04 14:23 | 38.71753 | 41.72896 | 6727 ft | 227 kts | 125° |
| 2026-05-04 14:23 | 38.70928 | 41.74662 | 7448 ft | 233 kts | 125° |
| 2026-05-04 14:23 | 38.70103 | 41.76455 | 8290 ft | 236 kts | 125° |
| 2026-05-04 14:24 | 38.69382 | 41.78363 | 9130 ft | 245 kts | 106° |
| 2026-05-04 14:24 | 38.69531 | 41.80575 | 9905 ft | 261 kts | 68° |
| 2026-05-04 14:24 | 38.70710 | 41.82367 | 10609 ft | 271 kts | 32° |
| 2026-05-04 14:24 | 38.72487 | 41.83169 | 11329 ft | 274 kts | 2° |
| 2026-05-04 14:25 | 38.74353 | 41.82854 | 12061 ft | 271 kts | 333° |
| 2026-05-04 14:25 | 38.77841 | 41.80500 | 12913 ft | 304 kts | 321° |
| 2026-05-04 14:25 | 38.79652 | 41.78919 | 13159 ft | 327 kts | 320° |
| 2026-05-04 14:26 | 38.81575 | 41.77177 | 13364 ft | 350 kts | 320° |
| 2026-05-04 14:26 | 38.83615 | 41.75310 | 13658 ft | 368 kts | 320° |
| 2026-05-04 14:26 | 38.85721 | 41.73389 | 14218 ft | 375 kts | 320° |
| 2026-05-04 14:26 | 38.87864 | 41.71451 | 14873 ft | 379 kts | 320° |
| 2026-05-04 14:27 | 38.90033 | 41.69498 | 15538 ft | 383 kts | 321° |
| 2026-05-04 14:27 | 38.92194 | 41.67557 | 16192 ft | 386 kts | 321° |
| 2026-05-04 14:27 | 38.94433 | 41.65542 | 16863 ft | 389 kts | 321° |
| 2026-05-04 14:27 | 38.96629 | 41.63559 | 17529 ft | 392 kts | 320° |
| 2026-05-04 14:28 | 38.98868 | 41.61531 | 18175 ft | 396 kts | 321° |
| 2026-05-04 14:28 | 39.01127 | 41.59481 | 18730 ft | 399 kts | 320° |
| 2026-05-04 14:28 | 39.03403 | 41.57413 | 19254 ft | 402 kts | 320° |
| 2026-05-04 14:28 | 39.05749 | 41.55412 | 19763 ft | 409 kts | 327° |
| 2026-05-04 14:29 | 39.11142 | 41.52792 | 20836 ft | 421 kts | 341° |
| 2026-05-04 14:29 | 39.16818 | 41.50683 | 21927 ft | 427 kts | 340° |
| 2026-05-04 14:30 | 39.19679 | 41.49610 | 22438 ft | 430 kts | 340° |
| 2026-05-04 14:30 | 39.22561 | 41.48526 | 22984 ft | 433 kts | 340° |
| 2026-05-04 14:30 | 39.28382 | 41.46326 | 23964 ft | 439 kts | 340° |
| 2026-05-04 14:31 | 39.31322 | 41.45213 | 24394 ft | 443 kts | 340° |
| 2026-05-04 14:31 | 39.37011 | 41.42191 | 25189 ft | 441 kts | 322° |
| 2026-05-04 14:32 | 39.41432 | 41.36879 | 25993 ft | 432 kts | 300° |
| 2026-05-04 14:32 | 39.42956 | 41.33565 | 26392 ft | 426 kts | 289° |
| 2026-05-04 14:32 | 39.43968 | 41.29997 | 26822 ft | 421 kts | 279° |
| 2026-05-04 14:32 | 39.44598 | 41.26312 | 27237 ft | 421 kts | 276° |
| 2026-05-04 14:33 | 39.45214 | 41.22594 | 27666 ft | 423 kts | 276° |
| 2026-05-04 14:33 | 39.45832 | 41.18863 | 28083 ft | 426 kts | 276° |
| 2026-05-04 14:33 | 39.46452 | 41.15113 | 28483 ft | 428 kts | 276° |
| 2026-05-04 14:33 | 39.47077 | 41.11326 | 28886 ft | 431 kts | 276° |
| 2026-05-04 14:34 | 39.47704 | 41.07525 | 29284 ft | 434 kts | 276° |
| 2026-05-04 14:34 | 39.48320 | 41.03743 | 29655 ft | 436 kts | 276° |
| 2026-05-04 14:34 | 39.48937 | 40.99888 | 30000 ft | 439 kts | 276° |
| 2026-05-04 14:34 | 39.49550 | 40.96004 | 30265 ft | 441 kts | 276° |
| 2026-05-04 14:35 | 39.50161 | 40.92096 | 30498 ft | 444 kts | 276° |
| 2026-05-04 14:35 | 39.50774 | 40.88170 | 30747 ft | 446 kts | 276° |
| 2026-05-04 14:35 | 39.51393 | 40.84241 | 31075 ft | 445 kts | 276° |
| 2026-05-04 14:35 | 39.52012 | 40.80316 | 31423 ft | 445 kts | 276° |
| 2026-05-04 14:36 | 39.52632 | 40.76384 | 31782 ft | 445 kts | 276° |
| 2026-05-04 14:36 | 39.53245 | 40.72459 | 32124 ft | 445 kts | 276° |
| 2026-05-04 14:36 | 39.53853 | 40.68526 | 32438 ft | 445 kts | 276° |
| 2026-05-04 14:36 | 39.54459 | 40.64595 | 32770 ft | 445 kts | 276° |
| 2026-05-04 14:37 | 39.55067 | 40.60656 | 33095 ft | 446 kts | 275° |
| 2026-05-04 14:37 | 39.55676 | 40.56716 | 33435 ft | 446 kts | 275° |
| 2026-05-04 14:37 | 39.56285 | 40.52772 | 33754 ft | 447 kts | 275° |
| 2026-05-04 14:37 | 39.56883 | 40.48821 | 34035 ft | 447 kts | 275° |
| 2026-05-04 14:38 | 39.57473 | 40.44862 | 34299 ft | 448 kts | 275° |
| 2026-05-04 14:38 | 39.58061 | 40.40900 | 34586 ft | 448 kts | 275° |
| 2026-05-04 14:38 | 39.58647 | 40.36934 | 34881 ft | 448 kts | 275° |
| 2026-05-04 14:38 | 39.59229 | 40.33019 | 35171 ft | 448 kts | 276° |
| 2026-05-04 14:39 | 39.59827 | 40.29001 | 35449 ft | 447 kts | 276° |
| 2026-05-04 14:39 | 39.60414 | 40.25042 | 35708 ft | 447 kts | 276° |
| 2026-05-04 14:39 | 39.60991 | 40.21133 | 35979 ft | 447 kts | 276° |
| 2026-05-04 14:40 | 39.62156 | 40.13219 | 36526 ft | 447 kts | 276° |
| 2026-05-04 14:40 | 39.62734 | 40.09262 | 36770 ft | 446 kts | 276° |
| 2026-05-04 14:40 | 39.63307 | 40.05304 | 37001 ft | 446 kts | 276° |
| 2026-05-04 14:40 | 39.63876 | 40.01345 | 37220 ft | 447 kts | 276° |
| 2026-05-04 14:41 | 39.64444 | 39.97386 | 37428 ft | 447 kts | 276° |
| 2026-05-04 14:41 | 39.65013 | 39.93420 | 37636 ft | 447 kts | 276° |
| 2026-05-04 14:41 | 39.66157 | 39.85481 | 37915 ft | 448 kts | 276° |
| 2026-05-04 14:42 | 39.67303 | 39.77534 | 37912 ft | 448 kts | 276° |
| 2026-05-04 14:42 | 39.68442 | 39.69574 | 37903 ft | 449 kts | 276° |
| 2026-05-04 14:43 | 39.69388 | 39.62941 | 37896 ft | 450 kts | 276° |
| 2026-05-04 14:43 | 39.70524 | 39.54950 | 37896 ft | 450 kts | 276° |
| 2026-05-04 14:44 | 39.71083 | 39.46910 | 37903 ft | 447 kts | 269° |
| 2026-05-04 14:44 | 39.71421 | 39.38840 | 37911 ft | 448 kts | 269° |
| 2026-05-04 14:45 | 39.71760 | 39.30756 | 37915 ft | 448 kts | 269° |
| 2026-05-04 14:45 | 39.71999 | 39.25003 | 37902 ft | 448 kts | 269° |
| 2026-05-04 14:46 | 39.72326 | 39.16918 | 37895 ft | 448 kts | 269° |
| 2026-05-04 14:46 | 39.72645 | 39.08887 | 37885 ft | 448 kts | 270° |
| 2026-05-04 14:47 | 39.72954 | 39.00791 | 37875 ft | 449 kts | 269° |
| 2026-05-04 14:47 | 39.73244 | 38.92692 | 37866 ft | 449 kts | 269° |
| 2026-05-04 14:48 | 39.73531 | 38.84580 | 37865 ft | 450 kts | 269° |
| 2026-05-04 14:48 | 39.73820 | 38.76451 | 37866 ft | 451 kts | 269° |
| 2026-05-04 14:49 | 39.74108 | 38.68308 | 37869 ft | 452 kts | 269° |
| 2026-05-04 14:49 | 39.74388 | 38.60145 | 37864 ft | 452 kts | 269° |
| 2026-05-04 14:50 | 39.74660 | 38.51981 | 37866 ft | 452 kts | 269° |
| 2026-05-04 14:50 | 39.74927 | 38.43815 | 37863 ft | 452 kts | 269° |
| 2026-05-04 14:51 | 39.75186 | 38.35653 | 37857 ft | 452 kts | 269° |
| 2026-05-04 14:51 | 39.75439 | 38.27494 | 37852 ft | 452 kts | 269° |
| 2026-05-04 14:52 | 39.75690 | 38.19389 | 37848 ft | 452 kts | 269° |
| 2026-05-04 14:52 | 39.75940 | 38.11179 | 37846 ft | 451 kts | 269° |
| 2026-05-04 14:53 | 39.76186 | 38.03089 | 37842 ft | 451 kts | 269° |
| 2026-05-04 14:53 | 39.76419 | 37.94943 | 37830 ft | 451 kts | 269° |
| 2026-05-04 14:54 | 39.76645 | 37.86802 | 37836 ft | 451 kts | 269° |
| 2026-05-04 14:54 | 39.76864 | 37.78651 | 37836 ft | 451 kts | 269° |
| 2026-05-04 14:55 | 39.77082 | 37.70492 | 37832 ft | 452 kts | 269° |
| 2026-05-04 14:55 | 39.77300 | 37.62327 | 37833 ft | 452 kts | 269° |
| 2026-05-04 14:56 | 39.77512 | 37.54157 | 37829 ft | 452 kts | 269° |
| 2026-05-04 14:56 | 39.77712 | 37.45991 | 37831 ft | 452 kts | 269° |
| 2026-05-04 14:57 | 39.77910 | 37.37824 | 37834 ft | 452 kts | 269° |
| 2026-05-04 14:57 | 39.78099 | 37.29659 | 37841 ft | 452 kts | 269° |
| 2026-05-04 14:58 | 39.78278 | 37.21492 | 37848 ft | 452 kts | 269° |
| 2026-05-04 14:58 | 39.78455 | 37.13329 | 37859 ft | 452 kts | 269° |
| 2026-05-04 14:59 | 39.78633 | 37.05164 | 37864 ft | 452 kts | 269° |
| 2026-05-04 15:00 | 39.78880 | 36.92973 | 37865 ft | 452 kts | 269° |
| 2026-05-04 15:00 | 39.79555 | 36.84849 | 37864 ft | 454 kts | 278° |
| 2026-05-04 15:01 | 39.81231 | 36.72722 | 37860 ft | 454 kts | 278° |
| 2026-05-04 15:01 | 39.82322 | 36.64619 | 37858 ft | 455 kts | 278° |
| 2026-05-04 15:02 | 39.83407 | 36.56514 | 37849 ft | 455 kts | 278° |
| 2026-05-04 15:02 | 39.84492 | 36.48410 | 37837 ft | 455 kts | 278° |
| 2026-05-04 15:03 | 39.85569 | 36.40306 | 37833 ft | 455 kts | 278° |
| 2026-05-04 15:03 | 39.86662 | 36.32194 | 37828 ft | 455 kts | 278° |
| 2026-05-04 15:04 | 39.87840 | 36.24100 | 37826 ft | 456 kts | 279° |
| 2026-05-04 15:04 | 39.88959 | 36.15974 | 37826 ft | 456 kts | 278° |
| 2026-05-04 15:05 | 39.90017 | 36.07835 | 37825 ft | 456 kts | 278° |
| 2026-05-04 15:05 | 39.91072 | 35.99674 | 37819 ft | 457 kts | 278° |
| 2026-05-04 15:06 | 39.92132 | 35.91511 | 37814 ft | 457 kts | 278° |
| 2026-05-04 15:07 | 39.93717 | 35.79299 | 37807 ft | 458 kts | 278° |
| 2026-05-04 15:07 | 39.94771 | 35.71106 | 37807 ft | 459 kts | 278° |
| 2026-05-04 15:08 | 39.95822 | 35.62894 | 37803 ft | 459 kts | 278° |
| 2026-05-04 15:08 | 39.96864 | 35.54676 | 37813 ft | 460 kts | 278° |
| 2026-05-04 15:09 | 39.97900 | 35.46446 | 37802 ft | 460 kts | 278° |
| 2026-05-04 15:09 | 39.98936 | 35.38205 | 37800 ft | 460 kts | 279° |
| 2026-05-04 15:10 | 40.01957 | 35.26301 | 37800 ft | 462 kts | 289° |
| 2026-05-04 15:11 | 40.05274 | 35.14471 | 37805 ft | 463 kts | 289° |
| 2026-05-04 15:11 | 40.07475 | 35.06574 | 37804 ft | 463 kts | 289° |
| 2026-05-04 15:12 | 40.09677 | 34.98672 | 37808 ft | 463 kts | 289° |
| 2026-05-04 15:12 | 40.11866 | 34.90753 | 37805 ft | 463 kts | 289° |
| 2026-05-04 15:13 | 40.14037 | 34.82879 | 37807 ft | 464 kts | 289° |
| 2026-05-04 15:13 | 40.16218 | 34.74940 | 37805 ft | 464 kts | 289° |
| 2026-05-04 15:14 | 40.18404 | 34.67006 | 37801 ft | 464 kts | 289° |
| 2026-05-04 15:14 | 40.20586 | 34.59063 | 37799 ft | 464 kts | 289° |
| 2026-05-04 15:15 | 40.22752 | 34.51109 | 37801 ft | 464 kts | 289° |
| 2026-05-04 15:15 | 40.24909 | 34.43153 | 37794 ft | 464 kts | 289° |
| 2026-05-04 15:16 | 40.28146 | 34.31214 | 37794 ft | 464 kts | 289° |
| 2026-05-04 15:17 | 40.31356 | 34.19328 | 37791 ft | 463 kts | 290° |
| 2026-05-04 15:17 | 40.34555 | 34.07392 | 37789 ft | 463 kts | 290° |
| 2026-05-04 15:18 | 40.36685 | 33.99427 | 37795 ft | 463 kts | 290° |
| 2026-05-04 15:19 | 40.39865 | 33.87491 | 37801 ft | 462 kts | 290° |
| 2026-05-04 15:19 | 40.43031 | 33.75546 | 37803 ft | 462 kts | 290° |
| 2026-05-04 15:20 | 40.45664 | 33.67903 | 37805 ft | 459 kts | 304° |
| 2026-05-04 15:20 | 40.49225 | 33.61013 | 37812 ft | 459 kts | 305° |
| 2026-05-04 15:21 | 40.52829 | 33.54029 | 37817 ft | 459 kts | 305° |
| 2026-05-04 15:22 | 40.58161 | 33.43638 | 37835 ft | 459 kts | 305° |
| 2026-05-04 15:22 | 40.63511 | 33.33181 | 37864 ft | 459 kts | 305° |
| 2026-05-04 15:23 | 40.67076 | 33.26192 | 37869 ft | 460 kts | 305° |
| 2026-05-04 15:23 | 40.70638 | 33.19192 | 37869 ft | 460 kts | 305° |
| 2026-05-04 15:24 | 40.77041 | 33.04594 | 37897 ft | 461 kts | 298° |
| 2026-05-04 15:25 | 40.79874 | 32.97082 | 37912 ft | 460 kts | 298° |
| 2026-05-04 15:26 | 40.84125 | 32.85750 | 37919 ft | 458 kts | 298° |
| 2026-05-04 15:26 | 40.88351 | 32.74443 | 37933 ft | 457 kts | 297° |
| 2026-05-04 15:27 | 40.92568 | 32.63147 | 37939 ft | 456 kts | 297° |
| 2026-05-04 15:28 | 40.96766 | 32.51865 | 37940 ft | 455 kts | 297° |
| 2026-05-04 15:29 | 41.00937 | 32.40576 | 37946 ft | 455 kts | 297° |
| 2026-05-04 15:30 | 41.10614 | 32.14246 | 37959 ft | 455 kts | 298° |
| 2026-05-04 15:31 | 41.13074 | 32.06457 | 37952 ft | 458 kts | 286° |
| 2026-05-04 15:31 | 41.13641 | 32.02356 | 37950 ft | 460 kts | 277° |
| 2026-05-04 15:32 | 41.15211 | 31.81189 | 37957 ft | 462 kts | 278° |
| 2026-05-04 15:33 | 41.15846 | 31.72686 | 37448 ft | 463 kts | 278° |
| 2026-05-04 15:34 | 41.16792 | 31.59803 | 36666 ft | 472 kts | 278° |
| 2026-05-04 15:34 | 41.17107 | 31.55425 | 36414 ft | 481 kts | 278° |
| 2026-05-04 15:34 | 41.17732 | 31.46539 | 35914 ft | 478 kts | 278° |
| 2026-05-04 15:35 | 41.18332 | 31.37875 | 35420 ft | 469 kts | 279° |
| 2026-05-04 15:35 | 41.18536 | 31.34965 | 35257 ft | 468 kts | 279° |
| 2026-05-04 15:35 | 41.18939 | 31.29265 | 34935 ft | 468 kts | 279° |
| 2026-05-04 15:36 | 41.19444 | 31.22102 | 34534 ft | 470 kts | 279° |
| 2026-05-04 15:36 | 41.19748 | 31.17782 | 34309 ft | 470 kts | 279° |
| 2026-05-04 15:36 | 41.20045 | 31.13457 | 34042 ft | 472 kts | 279° |
| 2026-05-04 15:37 | 41.20341 | 31.09090 | 32976 ft | 479 kts | 279° |
| 2026-05-04 15:37 | 41.20636 | 31.04670 | 32063 ft | 481 kts | 280° |
| 2026-05-04 15:37 | 41.20928 | 31.00235 | 31324 ft | 480 kts | 281° |
| 2026-05-04 15:37 | 41.21215 | 30.95838 | 30779 ft | 476 kts | 281° |
| 2026-05-04 15:38 | 41.21503 | 30.91478 | 30161 ft | 473 kts | 282° |
| 2026-05-04 15:38 | 41.21788 | 30.87139 | 29487 ft | 470 kts | 282° |
| 2026-05-04 15:38 | 41.22068 | 30.82839 | 28888 ft | 465 kts | 282° |
| 2026-05-04 15:38 | 41.22372 | 30.78593 | 28276 ft | 457 kts | 285° |
| 2026-05-04 15:39 | 41.23052 | 30.74552 | 27737 ft | 441 kts | 296° |
| 2026-05-04 15:39 | 41.24145 | 30.70816 | 27507 ft | 433 kts | 301° |
| 2026-05-04 15:39 | 41.26443 | 30.63446 | 26867 ft | 429 kts | 300° |
| 2026-05-04 15:40 | 41.27570 | 30.59775 | 26572 ft | 427 kts | 300° |
| 2026-05-04 15:40 | 41.28681 | 30.56129 | 26274 ft | 426 kts | 298° |
| 2026-05-04 15:40 | 41.29571 | 30.52347 | 25959 ft | 428 kts | 293° |
| 2026-05-04 15:40 | 41.30400 | 30.48558 | 25659 ft | 426 kts | 293° |
| 2026-05-04 15:41 | 41.31227 | 30.44785 | 25346 ft | 424 kts | 293° |
| 2026-05-04 15:41 | 41.32048 | 30.41031 | 25035 ft | 422 kts | 293° |
| 2026-05-04 15:41 | 41.32863 | 30.37291 | 24737 ft | 420 kts | 293° |
| 2026-05-04 15:41 | 41.33670 | 30.33568 | 24427 ft | 418 kts | 292° |
| 2026-05-04 15:42 | 41.34472 | 30.29863 | 24134 ft | 416 kts | 292° |
| 2026-05-04 15:42 | 41.35275 | 30.26173 | 23749 ft | 415 kts | 292° |
| 2026-05-04 15:42 | 41.36080 | 30.22490 | 23081 ft | 413 kts | 292° |
| 2026-05-04 15:42 | 41.36872 | 30.18843 | 22539 ft | 407 kts | 292° |
| 2026-05-04 15:43 | 41.37649 | 30.15238 | 22001 ft | 403 kts | 292° |
| 2026-05-04 15:43 | 41.38416 | 30.11671 | 21462 ft | 399 kts | 292° |
| 2026-05-04 15:43 | 41.39176 | 30.08146 | 20931 ft | 394 kts | 292° |
| 2026-05-04 15:43 | 41.40022 | 30.04705 | 20395 ft | 385 kts | 299° |
| 2026-05-04 15:44 | 41.41282 | 30.01632 | 19896 ft | 373 kts | 311° |
| 2026-05-04 15:44 | 41.42892 | 29.99066 | 19407 ft | 362 kts | 321° |
| 2026-05-04 15:44 | 41.44845 | 29.96950 | 18921 ft | 353 kts | 331° |
| 2026-05-04 15:44 | 41.46846 | 29.95069 | 18538 ft | 354 kts | 324° |
| 2026-05-04 15:45 | 41.48439 | 29.92520 | 18301 ft | 365 kts | 304° |
| 2026-05-04 15:45 | 41.49213 | 29.89937 | 18081 ft | 373 kts | 288° |
| 2026-05-04 15:45 | 41.49341 | 29.86454 | 17810 ft | 383 kts | 265° |
| 2026-05-04 15:45 | 41.48483 | 29.83071 | 17549 ft | 390 kts | 242° |
| 2026-05-04 15:46 | 41.46810 | 29.80220 | 17281 ft | 392 kts | 229° |
| 2026-05-04 15:46 | 41.44963 | 29.77542 | 17015 ft | 391 kts | 229° |
| 2026-05-04 15:46 | 41.43113 | 29.74891 | 16766 ft | 390 kts | 229° |
| 2026-05-04 15:46 | 41.41269 | 29.72259 | 16504 ft | 388 kts | 229° |
| 2026-05-04 15:47 | 41.39428 | 29.69634 | 16244 ft | 387 kts | 229° |
| 2026-05-04 15:47 | 41.37600 | 29.67020 | 15996 ft | 385 kts | 229° |
| 2026-05-04 15:47 | 41.35780 | 29.64411 | 15738 ft | 383 kts | 229° |
| 2026-05-04 15:47 | 41.33972 | 29.61814 | 15497 ft | 382 kts | 229° |
| 2026-05-04 15:48 | 41.32172 | 29.59226 | 15250 ft | 381 kts | 229° |
| 2026-05-04 15:48 | 41.30376 | 29.56645 | 15007 ft | 379 kts | 229° |
| 2026-05-04 15:48 | 41.26816 | 29.51531 | 14420 ft | 371 kts | 229° |
| 2026-05-04 15:49 | 41.25068 | 29.49030 | 13934 ft | 367 kts | 229° |
| 2026-05-04 15:49 | 41.23338 | 29.46559 | 13400 ft | 363 kts | 229° |
| 2026-05-04 15:49 | 41.21627 | 29.44118 | 12911 ft | 358 kts | 229° |
| 2026-05-04 15:49 | 41.19943 | 29.41720 | 12433 ft | 352 kts | 229° |
| 2026-05-04 15:50 | 41.18279 | 29.39356 | 11940 ft | 348 kts | 230° |
| 2026-05-04 15:50 | 41.16639 | 29.37021 | 11471 ft | 344 kts | 230° |
| 2026-05-04 15:50 | 41.15012 | 29.34701 | 10992 ft | 341 kts | 230° |
| 2026-05-04 15:50 | 41.13404 | 29.32413 | 10545 ft | 338 kts | 229° |
| 2026-05-04 15:51 | 41.11841 | 29.30194 | 10337 ft | 327 kts | 230° |
| 2026-05-04 15:51 | 41.10293 | 29.28000 | 10150 ft | 316 kts | 230° |
| 2026-05-04 15:51 | 41.08824 | 29.25922 | 9907 ft | 310 kts | 230° |
| 2026-05-04 15:51 | 41.07348 | 29.23846 | 9769 ft | 309 kts | 229° |
| 2026-05-04 15:52 | 41.05879 | 29.21764 | 9474 ft | 310 kts | 230° |
| 2026-05-04 15:52 | 41.04413 | 29.19677 | 9004 ft | 309 kts | 231° |
| 2026-05-04 15:52 | 41.02953 | 29.17605 | 8621 ft | 305 kts | 231° |
| 2026-05-04 15:52 | 41.01503 | 29.15553 | 8171 ft | 304 kts | 231° |
| 2026-05-04 15:53 | 41.00072 | 29.13534 | 7808 ft | 299 kts | 231° |
| 2026-05-04 15:53 | 40.98645 | 29.11522 | 7398 ft | 298 kts | 232° |
| 2026-05-04 15:53 | 40.97241 | 29.09540 | 6942 ft | 293 kts | 232° |
| 2026-05-04 15:53 | 40.95852 | 29.07583 | 6424 ft | 291 kts | 233° |
| 2026-05-04 15:54 | 40.94935 | 29.06293 | 6134 ft | 287 kts | 233° |
| 2026-05-04 15:54 | 40.93736 | 29.04618 | 6010 ft | 271 kts | 233° |
| 2026-05-04 15:54 | 40.92503 | 29.02825 | 5874 ft | 255 kts | 240° |
| 2026-05-04 15:54 | 40.91702 | 29.00836 | 5640 ft | 238 kts | 259° |
| 2026-05-04 15:55 | 40.91405 | 28.98753 | 5415 ft | 226 kts | 275° |
| 2026-05-04 15:55 | 40.91522 | 28.96725 | 5131 ft | 220 kts | 283° |
| 2026-05-04 15:55 | 40.91713 | 28.94708 | 5034 ft | 222 kts | 283° |
| 2026-05-04 15:55 | 40.91897 | 28.92673 | 5036 ft | 224 kts | 282° |
| 2026-05-04 15:56 | 40.92077 | 28.90628 | 5031 ft | 224 kts | 283° |
| 2026-05-04 15:56 | 40.92256 | 28.88570 | 4715 ft | 227 kts | 283° |
| 2026-05-04 15:56 | 40.92435 | 28.86517 | 4409 ft | 228 kts | 282° |
| 2026-05-04 15:56 | 40.92613 | 28.84436 | 4178 ft | 228 kts | 282° |
| 2026-05-04 15:57 | 40.92789 | 28.82370 | 4049 ft | 224 kts | 283° |
| 2026-05-04 15:57 | 40.93209 | 28.80440 | 4035 ft | 216 kts | 302° |
| 2026-05-04 15:57 | 40.94092 | 28.78881 | 4035 ft | 210 kts | 321° |
| 2026-05-04 15:57 | 40.95286 | 28.77804 | 4034 ft | 208 kts | 332° |
| 2026-05-04 15:58 | 40.96534 | 28.76834 | 4032 ft | 205 kts | 332° |
| 2026-05-04 15:58 | 40.97827 | 28.76223 | 4034 ft | 197 kts | 354° |
| 2026-05-04 15:58 | 40.99198 | 28.76173 | 4033 ft | 197 kts | 359° |
| 2026-05-04 15:58 | 41.00518 | 28.76154 | 4039 ft | 183 kts | 359° |
| 2026-05-04 15:59 | 41.01782 | 28.76131 | 4043 ft | 181 kts | 358° |
| 2026-05-04 15:59 | 41.03037 | 28.76108 | 4036 ft | 180 kts | 358° |
| 2026-05-04 15:59 | 41.04292 | 28.76084 | 4036 ft | 181 kts | 358° |
| 2026-05-04 15:59 | 41.05550 | 28.76061 | 4043 ft | 181 kts | 359° |
| 2026-05-04 16:00 | 41.06807 | 28.76037 | 4035 ft | 180 kts | 359° |
| 2026-05-04 16:00 | 41.08023 | 28.76014 | 3928 ft | 169 kts | 359° |
| 2026-05-04 16:00 | 41.09164 | 28.75993 | 3745 ft | 165 kts | 359° |
| 2026-05-04 16:00 | 41.10303 | 28.75971 | 3528 ft | 163 kts | 359° |
| 2026-05-04 16:01 | 41.11442 | 28.75950 | 3312 ft | 164 kts | 359° |
| 2026-05-04 16:01 | 41.12586 | 28.75928 | 3062 ft | 164 kts | 360° |
| 2026-05-04 16:01 | 41.13696 | 28.75907 | 2842 ft | 155 kts | 0° |
| 2026-05-04 16:01 | 41.14746 | 28.75887 | 2643 ft | 148 kts | 0° |
| 2026-05-04 16:02 | 41.15768 | 28.75868 | 2443 ft | 146 kts | 0° |
| 2026-05-04 16:02 | 41.16780 | 28.75848 | 2230 ft | 144 kts | 0° |
| 2026-05-04 16:02 | 41.18718 | 28.75812 | 1864 ft | 131 kts | 0° |
| 2026-05-04 16:03 | 41.19617 | 28.75795 | 1682 ft | 128 kts | 360° |
| 2026-05-04 16:03 | 41.20499 | 28.75777 | 1504 ft | 126 kts | 359° |
| 2026-05-04 16:03 | 41.21374 | 28.75761 | 1343 ft | 126 kts | 360° |
| 2026-05-04 16:03 | 41.22252 | 28.75738 | 1150 ft | 126 kts | 360° |
| 2026-05-04 16:04 | 41.23133 | 28.75740 | 950 ft | 126 kts | 359° |
| 2026-05-04 16:04 | 41.24881 | 28.75695 | 649 ft | 126 kts | 358° |
| 2026-05-04 16:04 | 41.25753 | 28.75679 | 460 ft | 125 kts | 358° |
| 2026-05-04 16:05 | 41.26620 | 28.75663 | 336 ft | 120 kts | 358° |
| 2026-05-04 16:05 | 41.27279 | 28.75649 | 334 ft | 55 kts | 360° |
| 2026-05-04 16:05 | 41.27894 | 28.75633 | 334 ft | 31 kts | 354° |
| 2026-05-04 16:06 | 41.28017 | 28.75590 | 332 ft | 14 kts | 337° |
| 2026-05-04 16:06 | 41.28161 | 28.75460 | 333 ft | 8 kts | 299° |
| 2026-05-04 16:07 | 41.28138 | 28.75359 | 334 ft | 11 kts | 210° |
| 2026-05-04 16:07 | 41.27963 | 28.75351 | 330 ft | 11 kts | 179° |
| 2026-05-04 16:08 | 41.27877 | 28.75353 | 331 ft | 14 kts | 179° |
| 2026-05-04 16:08 | 41.27515 | 28.75361 | 334 ft | 21 kts | 179° |
| 2026-05-04 16:09 | 41.27205 | 28.75369 | 331 ft | 22 kts | 179° |
| 2026-05-04 16:09 | 41.26870 | 28.75377 | 334 ft | 26 kts | 179° |
| 2026-05-04 16:10 | 41.26642 | 28.75364 | 333 ft | 8 kts | 222° |
| 2026-05-04 16:11 | 41.26525 | 28.75271 | 333 ft | 11 kts | 179° |
| 2026-05-04 16:11 | 41.26445 | 28.75273 | 332 ft | 11 kts | 179° |
| 2026-05-04 16:12 | 41.26153 | 28.75280 | 334 ft | 14 kts | 179° |
| 2026-05-04 16:12 | 41.25937 | 28.75221 | 334 ft | 9 kts | 264° |
| 2026-05-04 16:13 | 41.25969 | 28.75096 | 333 ft | 6 kts | 330° |
| 2026-05-04 16:13 | 41.25972 | 28.75032 | 334 ft | 2 kts | 251° |
| 2026-05-04 16:14 | 41.25963 | 28.74996 | 333 ft | 1 kts | 251° |